Time,TemperatureF,DewpointF,PressureIn,WindDirection,WindDirectionDegrees,WindSpeedMPH,WindSpeedGustMPH,Humidity,HourlyPrecipIn,Conditions,Clouds,dailyrainin,SoftwareType,DateUTC
2013-01-12 00:03:00,15.6,9.7,30.01,SW,225,0.0,3.0,77,0.00,,---,0.00,VWS V14.00,2013-01-12 07:03:00,
2013-01-12 00:08:00,15.7,9.5,30.01,SW,225,0.0,2.0,76,0.00,,---,0.00,VWS V14.00,2013-01-12 07:08:00,
2013-01-12 00:13:00,15.8,9.3,30.01,SW,223,0.0,0.0,75,0.00,,---,0.00,VWS V14.00,2013-01-12 07:13:00,
2013-01-12 00:19:00,15.8,9.0,30.02,NNW,331,0.0,2.0,74,0.00,,---,0.00,VWS V14.00,2013-01-12 07:19:00,
2013-01-12 00:24:00,15.5,8.4,30.02,NNW,331,0.0,0.0,73,0.00,,---,0.00,VWS V14.00,2013-01-12 07:24:00,
2013-01-12 00:30:00,15.3,8.2,30.03,NNW,331,0.0,0.0,73,0.00,,---,0.00,VWS V14.00,2013-01-12 07:30:00,
2013-01-12 00:35:00,15.1,7.7,30.04,NNW,331,0.0,0.0,72,0.00,,---,0.00,VWS V14.00,2013-01-12 07:35:00,
2013-01-12 00:41:00,15.0,7.6,30.04,NNW,331,0.0,0.0,72,0.00,,---,0.00,VWS V14.00,2013-01-12 07:41:00,
2013-01-12 00:46:00,14.8,7.4,30.05,NNW,331,0.0,2.0,72,0.00,,---,0.00,VWS V14.00,2013-01-12 07:46:00,
2013-01-12 00:51:00,14.5,7.1,30.05,NE,40,0.0,0.0,72,0.00,,---,0.00,VWS V14.00,2013-01-12 07:51:00,
2013-01-12 00:56:00,14.2,6.8,30.05,NE,40,0.0,2.0,72,0.00,,---,0.00,VWS V14.00,2013-01-12 07:56:00,
2013-01-12 01:01:00,13.6,6.0,30.05,NE,40,0.0,2.0,71,0.00,,---,0.00,VWS V14.00,2013-01-12 08:01:00,
2013-01-12 01:07:00,13.0,5.4,30.08,NE,37,2.0,3.0,71,0.00,,---,0.00,VWS V14.00,2013-01-12 08:07:00,
2013-01-12 01:13:00,12.5,4.6,30.09,North,355,1.0,3.0,70,0.00,,---,0.00,VWS V14.00,2013-01-12 08:13:00,
2013-01-12 01:18:00,11.9,4.0,30.10,NE,45,5.0,5.0,70,0.00,,---,0.00,VWS V14.00,2013-01-12 08:18:00,
2013-01-12 01:23:00,11.4,3.8,30.11,North,9,4.0,5.0,71,0.00,,---,0.00,VWS V14.00,2013-01-12 08:23:00,
2013-01-12 01:28:00,10.5,3.0,30.11,NNE,22,0.0,3.0,71,0.00,,---,0.00,VWS V14.00,2013-01-12 08:28:00,
2013-01-12 01:33:00,9.9,2.4,30.13,WNW,287,5.0,5.0,71,0.00,,---,0.00,VWS V14.00,2013-01-12 08:33:00,
2013-01-12 01:39:00,9.2,2.0,30.13,NNE,28,0.0,1.0,72,0.00,,---,0.00,VWS V14.00,2013-01-12 08:39:00,
2013-01-12 01:44:00,8.9,1.7,30.13,NNE,28,1.0,1.0,72,0.00,,---,0.00,VWS V14.00,2013-01-12 08:44:00,
2013-01-12 01:49:00,8.6,1.7,30.14,North,355,0.0,3.0,73,0.00,,---,0.00,VWS V14.00,2013-01-12 08:49:00,
2013-01-12 01:54:00,8.3,1.7,30.15,North,349,2.0,3.0,74,0.00,,---,0.00,VWS V14.00,2013-01-12 08:54:00,
2013-01-12 01:59:00,8.2,1.6,30.16,NNE,15,0.0,2.0,74,0.00,,---,0.00,VWS V14.00,2013-01-12 08:59:00,
2013-01-12 02:04:00,8.2,1.9,30.17,NNE,16,0.0,0.0,75,0.00,,---,0.00,VWS V14.00,2013-01-12 09:04:00,
2013-01-12 02:09:00,8.1,1.8,30.18,NNE,16,0.0,3.0,75,0.00,,---,0.00,VWS V14.00,2013-01-12 09:09:00,
2013-01-12 02:14:00,8.1,2.1,30.18,NNE,15,0.0,2.0,76,0.00,,---,0.00,VWS V14.00,2013-01-12 09:14:00,
2013-01-12 02:19:00,8.1,2.1,30.18,NNW,331,0.0,1.0,76,0.00,,---,0.00,VWS V14.00,2013-01-12 09:19:00,
2013-01-12 02:24:00,8.1,2.4,30.18,NNW,336,0.0,2.0,77,0.00,,---,0.00,VWS V14.00,2013-01-12 09:24:00,
2013-01-12 02:29:00,8.1,2.4,30.18,NNW,337,0.0,2.0,77,0.00,,---,0.00,VWS V14.00,2013-01-12 09:29:00,
2013-01-12 02:34:00,8.1,2.7,30.18,NNW,337,0.0,1.0,78,0.00,,---,0.00,VWS V14.00,2013-01-12 09:34:00,
2013-01-12 02:39:00,8.1,2.7,30.18,NNW,337,0.0,0.0,78,0.00,,---,0.00,VWS V14.00,2013-01-12 09:39:00,
2013-01-12 02:44:00,8.1,2.7,30.19,NNW,337,2.0,2.0,78,0.00,,---,0.00,VWS V14.00,2013-01-12 09:44:00,
2013-01-12 02:49:00,8.1,2.7,30.18,NNW,339,1.0,3.0,78,0.00,,---,0.00,VWS V14.00,2013-01-12 09:49:00,
2013-01-12 02:54:00,8.1,2.7,30.18,NNW,339,1.0,3.0,78,0.00,,---,0.00,VWS V14.00,2013-01-12 09:54:00,
2013-01-12 02:59:00,8.1,3.0,30.18,NNW,339,0.0,1.0,79,0.00,,---,0.00,VWS V14.00,2013-01-12 09:59:00,
2013-01-12 03:04:00,8.0,2.8,30.21,NNW,338,0.0,2.0,79,0.00,,---,0.00,VWS V14.00,2013-01-12 10:04:00,
2013-01-12 03:09:00,7.9,2.8,30.20,NNW,337,0.0,0.0,79,0.00,,---,0.00,VWS V14.00,2013-01-12 10:09:00,
2013-01-12 03:14:00,7.7,2.6,30.20,NNW,338,0.0,0.0,79,0.00,,---,0.00,VWS V14.00,2013-01-12 10:14:00,
2013-01-12 03:19:00,7.5,2.4,30.20,NNW,338,0.0,0.0,79,0.00,,---,0.00,VWS V14.00,2013-01-12 10:19:00,
2013-01-12 03:24:00,7.3,2.2,30.20,NNW,338,0.0,0.0,79,0.00,,---,0.00,VWS V14.00,2013-01-12 10:24:00,
2013-01-12 03:29:00,7.1,2.0,30.20,NNW,337,0.0,0.0,79,0.00,,---,0.00,VWS V14.00,2013-01-12 10:29:00,
2013-01-12 03:34:00,6.9,1.8,30.21,NNW,336,2.0,3.0,79,0.00,,---,0.00,VWS V14.00,2013-01-12 10:34:00,
2013-01-12 03:39:00,6.8,1.7,30.20,NNW,336,0.0,1.0,79,0.00,,---,0.00,VWS V14.00,2013-01-12 10:39:00,
2013-01-12 03:44:00,6.5,1.4,30.20,North,355,0.0,0.0,79,0.00,,---,0.00,VWS V14.00,2013-01-12 10:44:00,
2013-01-12 03:49:00,6.4,1.3,30.21,North,355,1.0,1.0,79,0.00,,---,0.00,VWS V14.00,2013-01-12 10:49:00,
2013-01-12 03:54:00,6.2,1.4,30.21,North,355,0.0,3.0,80,0.00,,---,0.00,VWS V14.00,2013-01-12 10:54:00,
2013-01-12 03:59:00,6.1,1.3,30.21,North,355,1.0,1.0,80,0.00,,---,0.00,VWS V14.00,2013-01-12 10:59:00,
2013-01-12 04:04:00,6.0,1.2,30.23,North,355,1.0,1.0,80,0.00,,---,0.00,VWS V14.00,2013-01-12 11:04:00,
2013-01-12 04:09:00,5.8,1.0,30.23,North,355,0.0,0.0,80,0.00,,---,0.00,VWS V14.00,2013-01-12 11:09:00,
2013-01-12 04:14:00,5.8,1.0,30.23,North,355,0.0,0.0,80,0.00,,---,0.00,VWS V14.00,2013-01-12 11:14:00,
2013-01-12 04:19:00,5.8,1.0,30.23,North,355,0.0,1.0,80,0.00,,---,0.00,VWS V14.00,2013-01-12 11:19:00,
2013-01-12 04:24:00,5.9,1.1,30.23,North,355,1.0,1.0,80,0.00,,---,0.00,VWS V14.00,2013-01-12 11:24:00,
2013-01-12 04:29:00,5.9,1.1,30.23,North,355,1.0,1.0,80,0.00,,---,0.00,VWS V14.00,2013-01-12 11:29:00,
2013-01-12 04:34:00,5.8,1.0,30.23,North,355,0.0,2.0,80,0.00,,---,0.00,VWS V14.00,2013-01-12 11:34:00,
2013-01-12 04:39:00,5.8,1.2,30.23,NE,38,0.0,0.0,81,0.00,,---,0.00,VWS V14.00,2013-01-12 11:39:00,
2013-01-12 04:44:00,5.9,1.3,30.24,NE,38,0.0,0.0,81,0.00,,---,0.00,VWS V14.00,2013-01-12 11:44:00,
2013-01-12 04:49:00,5.9,1.3,30.24,NE,38,0.0,0.0,81,0.00,,---,0.00,VWS V14.00,2013-01-12 11:49:00,
2013-01-12 04:54:00,5.8,1.2,30.24,NE,38,0.0,0.0,81,0.00,,---,0.00,VWS V14.00,2013-01-12 11:54:00,
2013-01-12 04:59:00,5.8,1.2,30.24,NE,38,0.0,0.0,81,0.00,,---,0.00,VWS V14.00,2013-01-12 11:59:00,
2013-01-12 05:04:00,5.8,1.2,30.24,NE,38,0.0,0.0,81,0.00,,---,0.00,VWS V14.00,2013-01-12 12:04:00,
2013-01-12 05:09:00,5.8,1.2,30.25,NE,38,0.0,2.0,81,0.00,,---,0.00,VWS V14.00,2013-01-12 12:09:00,
2013-01-12 05:14:00,5.7,1.1,30.25,NE,38,0.0,2.0,81,0.00,,---,0.00,VWS V14.00,2013-01-12 12:14:00,
2013-01-12 05:19:00,5.8,1.2,30.25,NE,38,0.0,0.0,81,0.00,,---,0.00,VWS V14.00,2013-01-12 12:19:00,
2013-01-12 05:24:00,5.8,1.2,30.25,NE,38,0.0,0.0,81,0.00,,---,0.00,VWS V14.00,2013-01-12 12:24:00,
2013-01-12 05:29:00,5.8,1.2,30.26,NE,38,0.0,0.0,81,0.00,,---,0.00,VWS V14.00,2013-01-12 12:29:00,
2013-01-12 05:34:00,5.8,1.2,30.26,NE,38,0.0,0.0,81,0.00,,---,0.00,VWS V14.00,2013-01-12 12:34:00,
2013-01-12 05:39:00,5.8,1.2,30.27,NE,38,0.0,0.0,81,0.00,,---,0.00,VWS V14.00,2013-01-12 12:39:00,
2013-01-12 05:44:00,5.7,1.1,30.27,NE,38,0.0,0.0,81,0.00,,---,0.00,VWS V14.00,2013-01-12 12:44:00,
2013-01-12 05:49:00,5.7,1.1,30.26,NE,38,0.0,0.0,81,0.00,,---,0.00,VWS V14.00,2013-01-12 12:49:00,
2013-01-12 05:54:00,5.7,1.1,30.27,NE,38,0.0,0.0,81,0.00,,---,0.00,VWS V14.00,2013-01-12 12:54:00,
2013-01-12 05:59:00,5.7,1.1,30.27,NE,38,0.0,0.0,81,0.00,,---,0.00,VWS V14.00,2013-01-12 12:59:00,
2013-01-12 06:04:00,5.6,1.0,30.29,NE,38,0.0,0.0,81,0.00,,---,0.00,VWS V14.00,2013-01-12 13:04:00,
2013-01-12 06:09:00,5.5,0.9,30.29,NE,38,0.0,0.0,81,0.00,,---,0.00,VWS V14.00,2013-01-12 13:09:00,
2013-01-12 06:14:00,5.4,0.9,30.29,NE,37,0.0,0.0,81,0.00,,---,0.00,VWS V14.00,2013-01-12 13:14:00,
2013-01-12 06:19:00,5.3,0.8,30.30,NE,38,0.0,1.0,81,0.00,,---,0.00,VWS V14.00,2013-01-12 13:19:00,
2013-01-12 06:24:00,5.3,0.8,30.30,NE,38,0.0,0.0,81,0.00,,---,0.00,VWS V14.00,2013-01-12 13:24:00,
2013-01-12 06:29:00,5.2,0.6,30.31,NE,38,0.0,0.0,81,0.00,,---,0.00,VWS V14.00,2013-01-12 13:29:00,
2013-01-12 06:34:00,5.3,0.8,30.31,NE,38,0.0,0.0,81,0.00,,---,0.00,VWS V14.00,2013-01-12 13:34:00,
2013-01-12 06:39:00,5.2,0.6,30.31,NE,38,0.0,0.0,81,0.00,,---,0.00,VWS V14.00,2013-01-12 13:39:00,
2013-01-12 06:44:00,5.2,0.6,30.31,NE,38,0.0,0.0,81,0.00,,---,0.00,VWS V14.00,2013-01-12 13:44:00,
2013-01-12 06:49:00,5.2,0.6,30.32,NE,38,0.0,0.0,81,0.00,,---,0.00,VWS V14.00,2013-01-12 13:49:00,
2013-01-12 06:54:00,5.1,0.6,30.32,NE,38,0.0,0.0,81,0.00,,---,0.00,VWS V14.00,2013-01-12 13:54:00,
2013-01-12 06:59:00,5.1,0.6,30.32,NE,38,0.0,0.0,81,0.00,,---,0.00,VWS V14.00,2013-01-12 13:59:00,
2013-01-12 07:04:00,5.0,0.5,30.35,NE,38,0.0,0.0,81,0.00,,---,0.00,VWS V14.00,2013-01-12 14:04:00,
2013-01-12 07:09:00,4.9,0.4,30.36,NE,38,0.0,0.0,81,0.00,,---,0.00,VWS V14.00,2013-01-12 14:09:00,
2013-01-12 07:14:00,4.8,0.3,30.36,NE,38,0.0,0.0,81,0.00,,---,0.00,VWS V14.00,2013-01-12 14:14:00,
2013-01-12 07:19:00,4.8,0.3,30.36,NE,38,0.0,1.0,81,0.00,,---,0.00,VWS V14.00,2013-01-12 14:19:00,
2013-01-12 07:24:00,4.9,0.4,30.37,NE,38,0.0,0.0,81,0.00,,---,0.00,VWS V14.00,2013-01-12 14:24:00,
2013-01-12 07:29:00,4.9,0.6,30.37,NE,38,0.0,0.0,82,0.00,,---,0.00,VWS V14.00,2013-01-12 14:29:00,
2013-01-12 07:34:00,5.1,0.8,30.37,NE,38,0.0,1.0,82,0.00,,---,0.00,VWS V14.00,2013-01-12 14:34:00,
2013-01-12 07:39:00,5.2,0.9,30.37,NE,38,0.0,0.0,82,0.00,,---,0.00,VWS V14.00,2013-01-12 14:39:00,
2013-01-12 07:44:00,5.3,1.0,30.38,NE,38,0.0,1.0,82,0.00,,---,0.00,VWS V14.00,2013-01-12 14:44:00,
2013-01-12 07:49:00,5.4,1.1,30.38,NE,38,0.0,0.0,82,0.00,,---,0.00,VWS V14.00,2013-01-12 14:49:00,
2013-01-12 07:54:00,5.5,1.2,30.37,NE,38,0.0,0.0,82,0.00,,---,0.00,VWS V14.00,2013-01-12 14:54:00,
2013-01-12 07:59:00,5.7,1.4,30.37,NE,38,0.0,1.0,82,0.00,,---,0.00,VWS V14.00,2013-01-12 14:59:00,
2013-01-12 08:04:00,5.8,1.5,30.39,NE,38,2.0,2.0,82,0.00,,---,0.00,VWS V14.00,2013-01-12 15:04:00,
2013-01-12 08:09:00,5.9,1.6,30.39,NE,38,0.0,0.0,82,0.00,,---,0.00,VWS V14.00,2013-01-12 15:09:00,
2013-01-12 08:14:00,6.0,1.7,30.40,NE,38,0.0,0.0,82,0.00,,---,0.00,VWS V14.00,2013-01-12 15:14:00,
2013-01-12 08:19:00,6.1,1.8,30.40,NE,38,0.0,0.0,82,0.00,,---,0.00,VWS V14.00,2013-01-12 15:19:00,
2013-01-12 08:24:00,6.2,1.9,30.40,NE,37,0.0,0.0,82,0.00,,---,0.00,VWS V14.00,2013-01-12 15:24:00,
2013-01-12 08:29:00,6.2,1.9,30.41,NE,38,0.0,0.0,82,0.00,,---,0.00,VWS V14.00,2013-01-12 15:29:00,
2013-01-12 08:34:00,6.3,2.0,30.41,NE,38,0.0,0.0,82,0.00,,---,0.00,VWS V14.00,2013-01-12 15:34:00,
2013-01-12 08:39:00,6.3,2.0,30.41,NE,38,0.0,1.0,82,0.00,,---,0.00,VWS V14.00,2013-01-12 15:39:00,
2013-01-12 08:44:00,6.4,2.1,30.41,NE,38,0.0,2.0,82,0.00,,---,0.00,VWS V14.00,2013-01-12 15:44:00,
2013-01-12 08:49:00,6.7,2.4,30.40,NE,38,0.0,1.0,82,0.00,,---,0.00,VWS V14.00,2013-01-12 15:49:00,
2013-01-12 08:54:00,6.3,2.0,30.41,NE,38,0.0,0.0,82,0.00,,---,0.00,VWS V14.00,2013-01-12 15:54:00,
2013-01-12 08:59:00,6.5,2.2,30.40,NE,38,0.0,0.0,82,0.00,,---,0.00,VWS V14.00,2013-01-12 15:59:00,
2013-01-12 09:04:00,6.8,2.2,30.41,NE,38,0.0,2.0,81,0.00,,---,0.00,VWS V14.00,2013-01-12 16:04:00,
2013-01-12 09:09:00,7.1,2.5,30.41,NE,38,0.0,2.0,81,0.00,,---,0.00,VWS V14.00,2013-01-12 16:09:00,
2013-01-12 09:14:00,7.2,2.6,30.41,NE,38,0.0,1.0,81,0.00,,---,0.00,VWS V14.00,2013-01-12 16:14:00,
2013-01-12 09:19:00,7.5,2.9,30.42,NE,38,0.0,0.0,81,0.00,,---,0.00,VWS V14.00,2013-01-12 16:19:00,
2013-01-12 09:24:00,7.9,3.3,30.40,NNW,331,3.0,3.0,81,0.00,,---,0.00,VWS V14.00,2013-01-12 16:24:00,
2013-01-12 09:29:00,8.0,3.4,30.40,NNW,331,0.0,2.0,81,0.00,,---,0.00,VWS V14.00,2013-01-12 16:29:00,
2013-01-12 09:34:00,8.2,3.6,30.40,NNW,330,0.0,1.0,81,0.00,,---,0.00,VWS V14.00,2013-01-12 16:34:00,
2013-01-12 09:39:00,8.5,3.9,30.41,NNE,28,0.0,2.0,81,0.00,,---,0.00,VWS V14.00,2013-01-12 16:39:00,
2013-01-12 09:44:00,8.4,3.5,30.41,NNE,19,0.0,0.0,80,0.00,,---,0.00,VWS V14.00,2013-01-12 16:44:00,
2013-01-12 09:49:00,8.7,3.8,30.41,NNE,19,0.0,0.0,80,0.00,,---,0.00,VWS V14.00,2013-01-12 16:49:00,
2013-01-12 09:54:00,9.6,4.9,30.41,NNE,19,0.0,1.0,81,0.00,,---,0.00,VWS V14.00,2013-01-12 16:54:00,
2013-01-12 09:59:00,9.4,4.5,30.41,NNE,19,0.0,0.0,80,0.00,,---,0.00,VWS V14.00,2013-01-12 16:59:00,
2013-01-12 10:04:00,9.8,4.6,30.39,NNE,19,0.0,0.0,79,0.00,,---,0.00,VWS V14.00,2013-01-12 17:04:00,
2013-01-12 10:09:00,10.4,5.5,30.39,NNE,19,0.0,0.0,80,0.00,,---,0.00,VWS V14.00,2013-01-12 17:09:00,
2013-01-12 10:14:00,10.5,5.3,30.39,NNE,19,0.0,0.0,79,0.00,,---,0.00,VWS V14.00,2013-01-12 17:14:00,
2013-01-12 10:19:00,10.1,4.6,30.39,NNE,19,0.0,2.0,78,0.00,,---,0.00,VWS V14.00,2013-01-12 17:19:00,
2013-01-12 10:24:00,10.5,5.0,30.39,NNE,19,0.0,1.0,78,0.00,,---,0.00,VWS V14.00,2013-01-12 17:24:00,
2013-01-12 10:29:00,10.1,4.6,30.39,NNE,19,0.0,0.0,78,0.00,,---,0.00,VWS V14.00,2013-01-12 17:29:00,
2013-01-12 10:34:00,10.3,4.8,30.39,NNE,19,0.0,1.0,78,0.00,,---,0.00,VWS V14.00,2013-01-12 17:34:00,
2013-01-12 10:39:00,10.6,5.1,30.39,NNE,19,0.0,2.0,78,0.00,,---,0.00,VWS V14.00,2013-01-12 17:39:00,
2013-01-12 10:44:00,10.7,5.2,30.39,NNE,19,0.0,0.0,78,0.00,,---,0.00,VWS V14.00,2013-01-12 17:44:00,
2013-01-12 10:49:00,10.9,5.1,30.39,NNE,19,0.0,0.0,77,0.00,,---,0.00,VWS V14.00,2013-01-12 17:49:00,
2013-01-12 10:54:00,11.2,5.4,30.38,NNE,19,0.0,1.0,77,0.00,,---,0.00,VWS V14.00,2013-01-12 17:54:00,
2013-01-12 10:59:00,11.5,5.7,30.36,NNE,19,0.0,1.0,77,0.00,,---,0.00,VWS V14.00,2013-01-12 17:59:00,
2013-01-12 11:04:00,11.8,6.0,30.35,NNE,19,0.0,0.0,77,0.00,,---,0.00,VWS V14.00,2013-01-12 18:04:00,
2013-01-12 11:09:00,12.0,5.9,30.35,NNE,19,0.0,0.0,76,0.00,,---,0.00,VWS V14.00,2013-01-12 18:09:00,
2013-01-12 11:14:00,12.7,7.2,30.35,East,94,0.0,3.0,78,0.00,,---,0.00,VWS V14.00,2013-01-12 18:14:00,
2013-01-12 11:19:00,13.1,7.0,30.34,East,94,0.0,0.0,76,0.00,,---,0.00,VWS V14.00,2013-01-12 18:19:00,
2013-01-12 11:24:00,13.1,7.0,30.34,East,94,0.0,0.0,76,0.00,,---,0.00,VWS V14.00,2013-01-12 18:24:00,
2013-01-12 11:30:00,13.4,7.0,30.33,East,98,0.0,0.0,75,0.00,,---,0.00,VWS V14.00,2013-01-12 18:30:00,
2013-01-12 11:35:00,12.3,5.6,30.33,East,96,0.0,2.0,74,0.00,,---,0.00,VWS V14.00,2013-01-12 18:35:00,
2013-01-12 11:40:00,12.4,5.7,30.32,East,97,0.0,0.0,74,0.00,,---,0.00,VWS V14.00,2013-01-12 18:40:00,
2013-01-12 11:46:00,13.0,6.3,30.32,East,97,0.0,2.0,74,0.00,,---,0.00,VWS V14.00,2013-01-12 18:46:00,
2013-01-12 11:51:00,13.2,6.5,30.32,East,97,0.0,0.0,74,0.00,,---,0.00,VWS V14.00,2013-01-12 18:51:00,
2013-01-12 11:56:00,13.7,6.7,30.30,SE,132,0.0,3.0,73,0.00,,---,0.00,VWS V14.00,2013-01-12 18:56:00,
2013-01-12 12:01:00,14.5,7.1,30.32,SE,132,4.0,4.0,72,0.00,,---,0.00,VWS V14.00,2013-01-12 19:01:00,
2013-01-12 12:06:00,14.5,7.1,30.31,ESE,117,1.0,3.0,72,0.00,,---,0.00,VWS V14.00,2013-01-12 19:06:00,
2013-01-12 12:11:00,14.1,6.8,30.31,ESE,123,0.0,1.0,72,0.00,,---,0.00,VWS V14.00,2013-01-12 19:11:00,
2013-01-12 12:16:00,14.5,6.8,30.31,SE,134,0.0,2.0,71,0.00,,---,0.00,VWS V14.00,2013-01-12 19:16:00,
2013-01-12 12:22:00,13.7,5.8,30.30,SE,134,0.0,1.0,70,0.00,,---,0.00,VWS V14.00,2013-01-12 19:22:00,
2013-01-12 12:27:00,13.4,5.8,30.31,SE,134,1.0,2.0,71,0.00,,---,0.00,VWS V14.00,2013-01-12 19:27:00,
2013-01-12 12:32:00,14.2,7.2,30.30,SE,132,2.0,2.0,73,0.00,,---,0.00,VWS V14.00,2013-01-12 19:32:00,
2013-01-12 12:37:00,14.6,6.9,30.29,SE,126,1.0,3.0,71,0.00,,---,0.00,VWS V14.00,2013-01-12 19:37:00,
2013-01-12 12:42:00,14.9,6.9,30.29,ESE,108,2.0,2.0,70,0.00,,---,0.00,VWS V14.00,2013-01-12 19:42:00,
2013-01-12 12:47:00,16.1,8.4,30.27,ESE,122,1.0,2.0,71,0.00,,---,0.00,VWS V14.00,2013-01-12 19:47:00,
2013-01-12 12:53:00,16.5,8.1,30.27,ESE,121,2.0,2.0,69,0.00,,---,0.00,VWS V14.00,2013-01-12 19:53:00,
2013-01-12 12:59:00,16.2,7.8,30.27,ESE,115,0.0,2.0,69,0.00,,---,0.00,VWS V14.00,2013-01-12 19:59:00,
2013-01-12 13:05:00,15.8,7.4,30.31,ESE,106,1.0,3.0,69,0.00,,---,0.00,VWS V14.00,2013-01-12 20:05:00,
2013-01-12 13:10:00,16.2,7.8,30.31,SE,131,1.0,4.0,69,0.00,,---,0.00,VWS V14.00,2013-01-12 20:10:00,
2013-01-12 13:16:00,15.7,6.4,30.31,SE,132,1.0,5.0,66,0.00,,---,0.00,VWS V14.00,2013-01-12 20:16:00,
2013-01-12 13:21:00,15.8,6.5,30.31,East,86,0.0,4.0,66,0.00,,---,0.00,VWS V14.00,2013-01-12 20:21:00,
2013-01-12 13:26:00,15.3,5.3,30.31,NE,55,4.0,6.0,64,0.00,,---,0.00,VWS V14.00,2013-01-12 20:26:00,
2013-01-12 13:31:00,14.1,4.2,30.32,East,79,3.0,3.0,64,0.00,,---,0.00,VWS V14.00,2013-01-12 20:31:00,
2013-01-12 13:36:00,15.1,5.5,30.32,East,92,1.0,3.0,65,0.00,,---,0.00,VWS V14.00,2013-01-12 20:36:00,
2013-01-12 13:41:00,15.7,6.0,30.31,East,86,2.0,5.0,65,0.00,,---,0.00,VWS V14.00,2013-01-12 20:41:00,
2013-01-12 13:46:00,15.7,5.7,30.31,East,95,2.0,3.0,64,0.00,,---,0.00,VWS V14.00,2013-01-12 20:46:00,
2013-01-12 13:51:00,16.6,7.6,30.31,SE,128,2.0,4.0,67,0.00,,---,0.00,VWS V14.00,2013-01-12 20:51:00,
2013-01-12 13:57:00,16.6,6.6,30.31,ESE,109,0.0,2.0,64,0.00,,---,0.00,VWS V14.00,2013-01-12 20:57:00,
2013-01-12 14:02:00,15.5,4.5,30.31,ENE,74,0.0,2.0,61,0.00,,---,0.00,VWS V14.00,2013-01-12 21:02:00,
2013-01-12 14:07:00,16.6,6.2,30.31,ESE,113,0.0,6.0,63,0.00,,---,0.00,VWS V14.00,2013-01-12 21:07:00,
2013-01-12 14:12:00,16.0,4.9,30.32,ESE,121,3.0,7.0,61,0.00,,---,0.00,VWS V14.00,2013-01-12 21:12:00,
2013-01-12 14:17:00,16.0,4.9,30.32,ESE,105,0.0,3.0,61,0.00,,---,0.00,VWS V14.00,2013-01-12 21:17:00,
2013-01-12 14:22:00,16.0,4.2,30.32,East,82,1.0,4.0,59,0.00,,---,0.00,VWS V14.00,2013-01-12 21:22:00,
2013-01-12 14:27:00,15.1,2.6,30.33,NNE,13,0.0,5.0,57,0.00,,---,0.00,VWS V14.00,2013-01-12 21:27:00,
2013-01-12 14:32:00,14.9,2.8,30.34,ENE,69,1.0,5.0,58,0.00,,---,0.00,VWS V14.00,2013-01-12 21:32:00,
2013-01-12 14:37:00,14.9,2.8,30.34,ESE,107,3.0,5.0,58,0.00,,---,0.00,VWS V14.00,2013-01-12 21:37:00,
2013-01-12 14:42:00,14.4,2.3,30.34,NE,45,0.0,3.0,58,0.00,,---,0.00,VWS V14.00,2013-01-12 21:42:00,
2013-01-12 14:47:00,14.4,2.0,30.35,ESE,105,3.0,3.0,57,0.00,,---,0.00,VWS V14.00,2013-01-12 21:47:00,
2013-01-12 14:52:00,14.3,2.2,30.35,NNE,29,3.0,7.0,58,0.00,,---,0.00,VWS V14.00,2013-01-12 21:52:00,
2013-01-12 14:57:00,14.6,2.5,30.35,East,85,2.0,6.0,58,0.00,,---,0.00,VWS V14.00,2013-01-12 21:57:00,
2013-01-12 15:02:00,14.5,3.2,30.36,ESE,103,0.0,0.0,60,0.00,,---,0.00,VWS V14.00,2013-01-12 22:02:00,
2013-01-12 15:07:00,14.5,2.4,30.37,ESE,102,0.0,3.0,58,0.00,,---,0.00,VWS V14.00,2013-01-12 22:07:00,
2013-01-12 15:12:00,13.9,1.9,30.37,East,101,0.0,2.0,58,0.00,,---,0.00,VWS V14.00,2013-01-12 22:12:00,
2013-01-12 15:17:00,13.9,2.2,30.37,East,97,1.0,2.0,59,0.00,,---,0.00,VWS V14.00,2013-01-12 22:17:00,
2013-01-12 15:22:00,14.5,3.2,30.37,East,100,3.0,4.0,60,0.00,,---,0.00,VWS V14.00,2013-01-12 22:22:00,
2013-01-12 15:27:00,13.7,2.0,30.37,East,91,3.0,7.0,59,0.00,,---,0.00,VWS V14.00,2013-01-12 22:27:00,
2013-01-12 15:32:00,12.6,1.0,30.39,ESE,105,0.0,2.0,59,0.00,,---,0.00,VWS V14.00,2013-01-12 22:32:00,
2013-01-12 15:37:00,12.4,1.2,30.39,East,82,1.0,2.0,60,0.00,,---,0.00,VWS V14.00,2013-01-12 22:37:00,
2013-01-12 15:42:00,12.1,1.2,30.39,ENE,63,0.0,3.0,61,0.00,,---,0.00,VWS V14.00,2013-01-12 22:42:00,
2013-01-12 15:47:00,12.2,1.3,30.39,East,90,0.0,0.0,61,0.00,,---,0.00,VWS V14.00,2013-01-12 22:47:00,
2013-01-12 15:52:00,12.1,1.2,30.39,East,88,2.0,2.0,61,0.00,,---,0.00,VWS V14.00,2013-01-12 22:52:00,
2013-01-12 15:57:00,11.8,1.3,30.39,East,94,1.0,2.0,62,0.00,,---,0.00,VWS V14.00,2013-01-12 22:57:00,
2013-01-12 16:02:00,11.6,1.1,30.39,ESE,105,3.0,3.0,62,0.00,,---,0.00,VWS V14.00,2013-01-12 23:02:00,
2013-01-12 16:07:00,11.4,1.3,30.41,East,94,0.0,2.0,63,0.00,,---,0.00,VWS V14.00,2013-01-12 23:07:00,
2013-01-12 16:13:00,11.2,1.4,30.41,East,92,0.0,0.0,64,0.00,,---,0.00,VWS V14.00,2013-01-12 23:13:00,
2013-01-12 16:18:00,11.2,1.4,30.42,East,92,1.0,2.0,64,0.00,,---,0.00,VWS V14.00,2013-01-12 23:18:00,
2013-01-12 16:23:00,10.9,1.1,30.42,East,88,3.0,3.0,64,0.00,,---,0.00,VWS V14.00,2013-01-12 23:23:00,
2013-01-12 16:28:00,10.8,1.4,30.42,East,82,1.0,1.0,65,0.00,,---,0.00,VWS V14.00,2013-01-12 23:28:00,
2013-01-12 16:33:00,10.8,1.4,30.42,ENE,65,1.0,6.0,65,0.00,,---,0.00,VWS V14.00,2013-01-12 23:33:00,
2013-01-12 16:38:00,10.8,1.4,30.42,ENE,57,0.0,3.0,65,0.00,,---,0.00,VWS V14.00,2013-01-12 23:38:00,
2013-01-12 16:43:00,10.9,1.8,30.42,ENE,72,0.0,4.0,66,0.00,,---,0.00,VWS V14.00,2013-01-12 23:43:00,
2013-01-12 16:48:00,10.7,1.6,30.42,SE,130,1.0,4.0,66,0.00,,---,0.00,VWS V14.00,2013-01-12 23:48:00,
2013-01-12 16:53:00,10.7,1.6,30.42,ESE,110,0.0,1.0,66,0.00,,---,0.00,VWS V14.00,2013-01-12 23:53:00,
2013-01-12 16:58:00,10.7,1.6,30.43,ESE,119,4.0,4.0,66,0.00,,---,0.00,VWS V14.00,2013-01-12 23:58:00,
2013-01-12 17:03:00,10.5,1.4,30.43,SE,125,1.0,4.0,66,0.00,,---,0.00,VWS V14.00,2013-01-13 00:03:00,
2013-01-12 17:08:00,10.4,1.6,30.43,SE,130,4.0,5.0,67,0.00,,---,0.00,VWS V14.00,2013-01-13 00:08:00,
2013-01-12 17:13:00,10.4,1.6,30.44,SE,131,1.0,3.0,67,0.00,,---,0.00,VWS V14.00,2013-01-13 00:13:00,
2013-01-12 17:18:00,10.3,1.5,30.44,SE,130,0.0,2.0,67,0.00,,---,0.00,VWS V14.00,2013-01-13 00:18:00,
2013-01-12 17:23:00,10.2,1.1,30.44,SE,130,0.0,1.0,66,0.00,,---,0.00,VWS V14.00,2013-01-13 00:23:00,
2013-01-12 17:28:00,10.4,1.6,30.44,SE,130,4.0,5.0,67,0.00,,---,0.00,VWS V14.00,2013-01-13 00:28:00,
2013-01-12 17:33:00,10.2,1.4,30.44,SE,135,0.0,2.0,67,0.00,,---,0.00,VWS V14.00,2013-01-13 00:33:00,
2013-01-12 17:38:00,10.1,1.3,30.44,SE,134,0.0,1.0,67,0.00,,---,0.00,VWS V14.00,2013-01-13 00:38:00,
2013-01-12 17:43:00,9.9,1.1,30.44,SE,126,0.0,1.0,67,0.00,,---,0.00,VWS V14.00,2013-01-13 00:43:00,
2013-01-12 17:48:00,10.0,1.6,30.44,SE,132,0.0,0.0,68,0.00,,---,0.00,VWS V14.00,2013-01-13 00:48:00,
2013-01-12 17:53:00,10.0,1.2,30.44,SE,132,0.0,1.0,67,0.00,,---,0.00,VWS V14.00,2013-01-13 00:53:00,
2013-01-12 17:58:00,9.9,1.5,30.45,SE,132,1.0,1.0,68,0.00,,---,0.00,VWS V14.00,2013-01-13 00:58:00,
2013-01-12 18:03:00,9.9,1.5,30.46,SE,132,0.0,0.0,68,0.00,,---,0.00,VWS V14.00,2013-01-13 01:03:00,
2013-01-12 18:08:00,9.9,1.5,30.46,SE,132,0.0,1.0,68,0.00,,---,0.00,VWS V14.00,2013-01-13 01:08:00,
2013-01-12 18:13:00,9.9,1.5,30.46,SE,132,0.0,1.0,68,0.00,,---,0.00,VWS V14.00,2013-01-13 01:13:00,
2013-01-12 18:18:00,9.9,1.5,30.46,ESE,122,0.0,0.0,68,0.00,,---,0.00,VWS V14.00,2013-01-13 01:18:00,
2013-01-12 18:23:00,9.7,1.6,30.46,ESE,122,0.0,0.0,69,0.00,,---,0.00,VWS V14.00,2013-01-13 01:23:00,
2013-01-12 18:28:00,9.6,1.5,30.46,ESE,122,0.0,0.0,69,0.00,,---,0.00,VWS V14.00,2013-01-13 01:28:00,
2013-01-12 18:33:00,9.5,1.7,30.46,ESE,122,0.0,0.0,70,0.00,,---,0.00,VWS V14.00,2013-01-13 01:33:00,
2013-01-12 18:38:00,9.4,1.6,30.47,ESE,122,0.0,0.0,70,0.00,,---,0.00,VWS V14.00,2013-01-13 01:38:00,
2013-01-12 18:43:00,9.2,1.4,30.46,ESE,122,0.0,0.0,70,0.00,,---,0.00,VWS V14.00,2013-01-13 01:43:00,
2013-01-12 18:48:00,9.1,1.3,30.46,ESE,122,0.0,0.0,70,0.00,,---,0.00,VWS V14.00,2013-01-13 01:48:00,
2013-01-12 18:53:00,8.9,1.4,30.46,ESE,122,0.0,0.0,71,0.00,,---,0.00,VWS V14.00,2013-01-13 01:53:00,
2013-01-12 18:58:00,8.8,1.3,30.46,ESE,122,0.0,0.0,71,0.00,,---,0.00,VWS V14.00,2013-01-13 01:58:00,
2013-01-12 19:03:00,8.7,1.2,30.46,ESE,122,0.0,0.0,71,0.00,,---,0.00,VWS V14.00,2013-01-13 02:03:00,
2013-01-12 19:08:00,8.6,1.1,30.46,ESE,122,0.0,0.0,71,0.00,,---,0.00,VWS V14.00,2013-01-13 02:08:00,
2013-01-12 19:13:00,8.6,1.1,30.46,ESE,122,0.0,0.0,71,0.00,,---,0.00,VWS V14.00,2013-01-13 02:13:00,
2013-01-12 19:18:00,8.5,1.0,30.46,ESE,122,0.0,0.0,71,0.00,,---,0.00,VWS V14.00,2013-01-13 02:18:00,
2013-01-12 19:23:00,8.4,1.2,30.47,ESE,122,0.0,0.0,72,0.00,,---,0.00,VWS V14.00,2013-01-13 02:23:00,
2013-01-12 19:29:00,8.3,1.1,30.47,ESE,122,0.0,0.0,72,0.00,,---,0.00,VWS V14.00,2013-01-13 02:29:00,
2013-01-12 19:35:00,8.2,1.0,30.47,ESE,122,0.0,0.0,72,0.00,,---,0.00,VWS V14.00,2013-01-13 02:35:00,
2013-01-12 19:40:00,8.1,1.0,30.47,ESE,122,0.0,0.0,72,0.00,,---,0.00,VWS V14.00,2013-01-13 02:40:00,
2013-01-12 19:45:00,8.0,0.9,30.47,ESE,122,0.0,0.0,72,0.00,,---,0.00,VWS V14.00,2013-01-13 02:45:00,
2013-01-12 19:50:00,7.9,1.1,30.46,ESE,122,0.0,0.0,73,0.00,,---,0.00,VWS V14.00,2013-01-13 02:50:00,
2013-01-12 19:56:00,7.8,1.0,30.46,ESE,122,0.0,0.0,73,0.00,,---,0.00,VWS V14.00,2013-01-13 02:56:00,
2013-01-12 20:01:00,7.7,0.9,30.47,ESE,122,0.0,0.0,73,0.00,,---,0.00,VWS V14.00,2013-01-13 03:01:00,
2013-01-12 20:06:00,7.6,0.8,30.47,ESE,122,0.0,0.0,73,0.00,,---,0.00,VWS V14.00,2013-01-13 03:06:00,
2013-01-12 20:11:00,7.5,0.7,30.47,ESE,122,0.0,0.0,73,0.00,,---,0.00,VWS V14.00,2013-01-13 03:11:00,
2013-01-12 20:16:00,7.4,0.6,30.46,ESE,122,0.0,0.0,73,0.00,,---,0.00,VWS V14.00,2013-01-13 03:16:00,
2013-01-12 20:21:00,7.3,0.8,30.46,ESE,122,0.0,0.0,74,0.00,,---,0.00,VWS V14.00,2013-01-13 03:21:00,
2013-01-12 20:26:00,7.2,0.7,30.47,ESE,122,0.0,0.0,74,0.00,,---,0.00,VWS V14.00,2013-01-13 03:26:00,
2013-01-12 20:31:00,7.1,0.6,30.46,ESE,122,0.0,0.0,74,0.00,,---,0.00,VWS V14.00,2013-01-13 03:31:00,
2013-01-12 20:36:00,6.9,0.4,30.46,ESE,122,0.0,0.0,74,0.00,,---,0.00,VWS V14.00,2013-01-13 03:36:00,
2013-01-12 20:41:00,6.8,0.3,30.46,ESE,122,0.0,0.0,74,0.00,,---,0.00,VWS V14.00,2013-01-13 03:41:00,
2013-01-12 20:46:00,6.7,0.2,30.46,ESE,122,0.0,0.0,74,0.00,,---,0.00,VWS V14.00,2013-01-13 03:46:00,
2013-01-12 20:51:00,6.6,0.1,30.46,ESE,122,0.0,0.0,74,0.00,,---,0.00,VWS V14.00,2013-01-13 03:51:00,
2013-01-12 20:56:00,6.5,0.0,30.47,ESE,122,0.0,0.0,74,0.00,,---,0.00,VWS V14.00,2013-01-13 03:56:00,
2013-01-12 21:01:00,6.3,-0.2,30.48,ESE,122,0.0,0.0,74,0.00,,---,0.00,VWS V14.00,2013-01-13 04:01:00,
2013-01-12 21:06:00,6.2,-0.3,30.45,ESE,122,0.0,0.0,74,0.00,,---,0.00,VWS V14.00,2013-01-13 04:06:00,
2013-01-12 21:11:00,6.1,-0.4,30.45,ESE,122,0.0,0.0,74,0.00,,---,0.00,VWS V14.00,2013-01-13 04:11:00,
2013-01-12 21:16:00,6.0,-0.5,30.45,ESE,122,0.0,0.0,74,0.00,,---,0.00,VWS V14.00,2013-01-13 04:16:00,
2013-01-12 21:21:00,5.8,-0.7,30.45,ESE,122,0.0,0.0,74,0.00,,---,0.00,VWS V14.00,2013-01-13 04:21:00,
2013-01-12 21:26:00,5.7,-0.8,30.45,ESE,122,0.0,0.0,74,0.00,,---,0.00,VWS V14.00,2013-01-13 04:26:00,
2013-01-12 21:31:00,5.6,-0.9,30.45,ESE,122,0.0,0.0,74,0.00,,---,0.00,VWS V14.00,2013-01-13 04:31:00,
2013-01-12 21:36:00,5.5,-1.0,30.45,ESE,122,0.0,0.0,74,0.00,,---,0.00,VWS V14.00,2013-01-13 04:36:00,
2013-01-12 21:41:00,5.4,-1.1,30.47,ESE,122,0.0,0.0,74,0.00,,---,0.00,VWS V14.00,2013-01-13 04:41:00,
2013-01-12 21:46:00,5.3,-1.2,30.47,ESE,122,0.0,0.0,74,0.00,,---,0.00,VWS V14.00,2013-01-13 04:46:00,
2013-01-12 21:51:00,5.2,-1.3,30.47,ESE,122,0.0,0.0,74,0.00,,---,0.00,VWS V14.00,2013-01-13 04:51:00,
2013-01-12 21:56:00,5.1,-1.4,30.47,ESE,122,0.0,0.0,74,0.00,,---,0.00,VWS V14.00,2013-01-13 04:56:00,
2013-01-12 22:03:00,4.9,-1.6,30.45,ESE,122,0.0,0.0,74,0.00,,---,0.00,VWS V14.00,2013-01-13 05:03:00,
2013-01-12 22:04:00,4.8,-1.6,30.45,ESE,122,0.0,0.0,74,0.00,,---,0.00,VWS V14.00,2013-01-13 05:04:00,
2013-01-12 22:07:00,4.7,-1.8,30.45,ESE,122,0.0,0.0,74,0.00,,---,0.00,VWS V14.00,2013-01-13 05:07:00,
2013-01-12 22:11:00,4.6,-1.9,30.45,ESE,122,0.0,0.0,74,0.00,,---,0.00,VWS V14.00,2013-01-13 05:11:00,
2013-01-12 22:16:00,4.5,-1.9,30.45,ESE,122,0.0,0.0,74,0.00,,---,0.00,VWS V14.00,2013-01-13 05:16:00,
2013-01-12 22:21:00,4.4,-2.0,30.47,ESE,122,0.0,0.0,74,0.00,,---,0.00,VWS V14.00,2013-01-13 05:21:00,
2013-01-12 22:26:00,4.3,-2.1,30.47,ESE,122,0.0,0.0,74,0.00,,---,0.00,VWS V14.00,2013-01-13 05:26:00,
2013-01-12 22:31:00,4.2,-2.2,30.47,ESE,122,0.0,0.0,74,0.00,,---,0.00,VWS V14.00,2013-01-13 05:31:00,
2013-01-12 22:36:00,4.2,-2.2,30.47,ESE,122,0.0,0.0,74,0.00,,---,0.00,VWS V14.00,2013-01-13 05:36:00,
2013-01-12 22:41:00,4.2,-2.2,30.47,ESE,122,0.0,0.0,74,0.00,,---,0.00,VWS V14.00,2013-01-13 05:41:00,
2013-01-12 22:46:00,4.1,-2.0,30.47,ESE,122,0.0,0.0,75,0.00,,---,0.00,VWS V14.00,2013-01-13 05:46:00,
2013-01-12 22:51:00,4.1,-2.0,30.47,ESE,122,0.0,0.0,75,0.00,,---,0.00,VWS V14.00,2013-01-13 05:51:00,
2013-01-12 22:56:00,4.0,-2.2,30.48,ESE,122,0.0,0.0,75,0.00,,---,0.00,VWS V14.00,2013-01-13 05:56:00,
2013-01-12 23:01:00,3.8,-2.3,30.48,ESE,122,0.0,0.0,75,0.00,,---,0.00,VWS V14.00,2013-01-13 06:01:00,
2013-01-12 23:06:00,3.7,-2.4,30.45,ESE,122,0.0,0.0,75,0.00,,---,0.00,VWS V14.00,2013-01-13 06:06:00,
2013-01-12 23:11:00,3.7,-2.4,30.45,ESE,122,0.0,0.0,75,0.00,,---,0.00,VWS V14.00,2013-01-13 06:11:00,
2013-01-12 23:16:00,3.6,-2.5,30.44,ESE,122,0.0,0.0,75,0.00,,---,0.00,VWS V14.00,2013-01-13 06:16:00,
2013-01-12 23:21:00,3.6,-2.5,30.44,ESE,122,0.0,0.0,75,0.00,,---,0.00,VWS V14.00,2013-01-13 06:21:00,
2013-01-12 23:26:00,3.6,-2.5,30.44,ESE,122,0.0,0.0,75,0.00,,---,0.00,VWS V14.00,2013-01-13 06:26:00,
2013-01-12 23:31:00,3.5,-2.6,30.45,ESE,122,0.0,0.0,75,0.00,,---,0.00,VWS V14.00,2013-01-13 06:31:00,
2013-01-12 23:36:00,3.5,-2.6,30.45,ESE,122,0.0,0.0,75,0.00,,---,0.00,VWS V14.00,2013-01-13 06:36:00,
2013-01-12 23:41:00,3.5,-2.6,30.45,ESE,122,0.0,0.0,75,0.00,,---,0.00,VWS V14.00,2013-01-13 06:41:00,
2013-01-12 23:46:00,3.4,-2.7,30.45,ESE,122,0.0,0.0,75,0.00,,---,0.00,VWS V14.00,2013-01-13 06:46:00,
2013-01-12 23:51:00,3.4,-2.7,30.45,ESE,122,0.0,0.0,75,0.00,,---,0.00,VWS V14.00,2013-01-13 06:51:00,
2013-01-12 23:56:00,3.4,-2.5,30.45,ESE,122,0.0,0.0,76,0.00,,---,0.00,VWS V14.00,2013-01-13 06:56:00,